Time,TemperatureF,DewpointF,PressureIn,WindDirection,WindDirectionDegrees,WindSpeedMPH,WindSpeedGustMPH,Humidity,HourlyPrecipIn,Conditions,Clouds,dailyrainin,SoftwareType,DateUTC
2013-04-27 00:12:00,58.9,54.0,30.37,ESE,106,4.0,8.0,85,0.00,,,0.00,weatherlink.com 1.10,2013-04-27 04:12:00,
2013-04-27 00:27:00,58.8,54.0,30.37,East,82,3.0,9.0,85,0.00,,,0.00,weatherlink.com 1.10,2013-04-27 04:27:00,
2013-04-27 00:42:00,59.0,55.0,30.36,ENE,67,4.0,8.0,86,0.00,,,0.00,weatherlink.com 1.10,2013-04-27 04:42:00,
2013-04-27 00:57:00,59.0,55.0,30.36,East,94,7.0,10.0,86,0.00,,,0.00,weatherlink.com 1.10,2013-04-27 04:57:00,
2013-04-27 01:12:00,59.2,55.0,30.36,ENE,68,7.0,9.0,86,0.00,,,0.00,weatherlink.com 1.10,2013-04-27 05:12:00,
2013-04-27 01:27:00,59.2,55.0,30.35,ENE,70,3.0,9.0,86,0.00,,,0.00,weatherlink.com 1.10,2013-04-27 05:27:00,
2013-04-27 01:42:00,59.1,55.0,30.35,ENE,68,2.0,7.0,86,0.00,,,0.00,weatherlink.com 1.10,2013-04-27 05:42:00,
2013-04-27 01:57:00,58.6,55.0,30.34,NE,36,3.0,5.0,86,0.00,,,0.00,weatherlink.com 1.10,2013-04-27 05:57:00,
2013-04-27 02:12:00,57.9,54.0,30.33,NE,36,4.0,5.0,86,0.00,,,0.00,weatherlink.com 1.10,2013-04-27 06:12:00,
2013-04-27 02:28:00,57.3,53.0,30.33,NE,36,0.0,2.0,86,0.00,,,0.00,weatherlink.com 1.10,2013-04-27 06:28:00,
2013-04-27 02:42:00,56.3,53.0,30.34,NE,36,3.0,3.0,87,0.00,,,0.00,weatherlink.com 1.10,2013-04-27 06:42:00,
2013-04-27 02:57:00,55.7,52.0,30.33,NE,36,2.0,4.0,87,0.00,,,0.00,weatherlink.com 1.10,2013-04-27 06:57:00,
2013-04-27 03:12:00,55.3,52.0,30.33,NE,36,0.0,1.0,87,0.00,,,0.00,weatherlink.com 1.10,2013-04-27 07:12:00,
2013-04-27 03:27:00,55.0,51.0,30.33,NE,36,0.0,2.0,87,0.00,,,0.00,weatherlink.com 1.10,2013-04-27 07:27:00,
2013-04-27 03:42:00,54.9,52.0,30.33,NE,36,2.0,4.0,88,0.00,,,0.00,weatherlink.com 1.10,2013-04-27 07:42:00,
2013-04-27 03:57:00,55.0,52.0,30.34,NE,36,2.0,5.0,88,0.00,,,0.00,weatherlink.com 1.10,2013-04-27 07:57:00,
2013-04-27 04:12:00,55.0,52.0,30.34,NE,36,2.0,4.0,88,0.00,,,0.00,weatherlink.com 1.10,2013-04-27 08:12:00,
2013-04-27 04:27:00,55.1,52.0,30.34,NE,36,2.0,5.0,88,0.00,,,0.00,weatherlink.com 1.10,2013-04-27 08:27:00,
2013-04-27 04:42:00,55.1,52.0,30.34,NE,36,4.0,5.0,88,0.00,,,0.00,weatherlink.com 1.10,2013-04-27 08:42:00,
2013-04-27 04:57:00,55.4,52.0,30.32,NE,35,3.0,6.0,88,0.00,,,0.00,weatherlink.com 1.10,2013-04-27 08:57:00,
2013-04-27 05:12:00,55.3,52.0,30.32,NE,34,5.0,7.0,88,0.00,,,0.00,weatherlink.com 1.10,2013-04-27 09:12:00,
2013-04-27 05:27:00,55.7,52.0,30.32,NNE,32,0.0,7.0,88,0.00,,,0.00,weatherlink.com 1.10,2013-04-27 09:27:00,
2013-04-27 05:43:00,56.0,53.0,30.32,NNE,30,6.0,7.0,88,0.00,,,0.00,weatherlink.com 1.10,2013-04-27 09:43:00,
2013-04-27 05:58:00,55.8,52.0,30.32,NNE,30,2.0,5.0,86,0.00,,,0.00,weatherlink.com 1.10,2013-04-27 09:58:00,
2013-04-27 06:13:00,55.7,52.0,30.32,NNE,30,3.0,5.0,86,0.00,,,0.00,weatherlink.com 1.10,2013-04-27 10:13:00,
2013-04-27 06:28:00,55.8,52.0,30.32,NNE,30,6.0,7.0,86,0.00,,,0.00,weatherlink.com 1.10,2013-04-27 10:28:00,
2013-04-27 06:43:00,56.1,52.0,30.32,NNE,30,4.0,7.0,87,0.00,,,0.00,weatherlink.com 1.10,2013-04-27 10:43:00,
2013-04-27 06:58:00,56.3,52.0,30.33,NNE,30,0.0,6.0,86,0.00,,,0.00,weatherlink.com 1.10,2013-04-27 10:58:00,
2013-04-27 07:13:00,56.9,53.0,30.33,NNE,29,0.0,6.0,86,0.00,,,0.00,weatherlink.com 1.10,2013-04-27 11:13:00,
2013-04-27 07:28:00,57.3,53.0,30.35,NNE,24,5.0,8.0,86,0.00,,,0.00,weatherlink.com 1.10,2013-04-27 11:28:00,
2013-04-27 07:43:00,57.6,53.0,30.34,NNE,24,3.0,8.0,85,0.00,,,0.00,weatherlink.com 1.10,2013-04-27 11:43:00,
2013-04-27 07:58:00,58.0,54.0,30.35,NNE,25,3.0,8.0,85,0.00,,,0.00,weatherlink.com 1.10,2013-04-27 11:58:00,
2013-04-27 08:13:00,58.7,54.0,30.35,NNE,26,3.0,8.0,84,0.00,,,0.00,weatherlink.com 1.10,2013-04-27 12:13:00,
2013-04-27 08:28:00,59.6,53.0,30.34,NNE,27,5.0,9.0,80,0.00,,,0.00,weatherlink.com 1.10,2013-04-27 12:28:00,
2013-04-27 08:43:00,60.3,53.0,30.36,NNE,28,2.0,8.0,77,0.00,,,0.00,weatherlink.com 1.10,2013-04-27 12:43:00,
2013-04-27 08:58:00,61.0,53.0,30.36,NNE,27,1.0,7.0,76,0.00,,,0.00,weatherlink.com 1.10,2013-04-27 12:58:00,
2013-04-27 09:13:00,61.6,53.0,30.36,NNE,27,3.0,7.0,74,0.00,,,0.00,weatherlink.com 1.10,2013-04-27 13:13:00,
2013-04-27 09:28:00,62.9,52.0,30.36,NNE,24,0.0,8.0,68,0.00,,,0.00,weatherlink.com 1.10,2013-04-27 13:28:00,
2013-04-27 09:43:00,63.8,52.0,30.36,NNE,24,5.0,7.0,66,0.00,,,0.00,weatherlink.com 1.10,2013-04-27 13:43:00,
2013-04-27 09:58:00,65.2,52.0,30.36,NNE,24,1.0,5.0,62,0.00,,,0.00,weatherlink.com 1.10,2013-04-27 13:58:00,
2013-04-27 10:13:00,67.1,51.0,30.36,NNE,24,0.0,3.0,56,0.00,,,0.00,weatherlink.com 1.10,2013-04-27 14:13:00,
2013-04-27 10:28:00,68.8,49.0,30.36,NNE,28,0.0,4.0,50,0.00,,,0.00,weatherlink.com 1.10,2013-04-27 14:28:00,
2013-04-27 10:43:00,70.0,51.0,30.35,East,82,0.0,6.0,51,0.00,,,0.00,weatherlink.com 1.10,2013-04-27 14:43:00,
2013-04-27 10:58:00,70.4,51.0,30.36,ESE,110,3.0,8.0,51,0.00,,,0.00,weatherlink.com 1.10,2013-04-27 14:58:00,
2013-04-27 11:13:00,71.3,52.0,30.36,ENE,77,1.0,8.0,50,0.00,,,0.00,weatherlink.com 1.10,2013-04-27 15:13:00,
2013-04-27 11:28:00,71.5,52.0,30.36,East,94,3.0,8.0,50,0.00,,,0.00,weatherlink.com 1.10,2013-04-27 15:28:00,
2013-04-27 11:43:00,72.1,50.0,30.36,ESE,108,2.0,8.0,45,0.00,,,0.00,weatherlink.com 1.10,2013-04-27 15:43:00,
2013-04-27 11:58:00,71.1,53.0,30.35,East,90,0.0,8.0,54,0.00,,,0.00,weatherlink.com 1.10,2013-04-27 15:58:00,
2013-04-27 12:13:00,72.4,51.0,30.35,East,98,0.0,7.0,48,0.00,,,0.00,weatherlink.com 1.10,2013-04-27 16:13:00,
2013-04-27 12:28:00,73.0,51.0,30.35,ESE,113,4.0,10.0,46,0.00,,,0.00,weatherlink.com 1.10,2013-04-27 16:28:00,
2013-04-27 12:43:00,73.3,50.0,30.34,SE,127,6.0,12.0,44,0.00,,,0.00,weatherlink.com 1.10,2013-04-27 16:43:00,
2013-04-27 12:58:00,73.5,50.0,30.33,SE,140,4.0,8.0,44,0.00,,,0.00,weatherlink.com 1.10,2013-04-27 16:58:00,
2013-04-27 13:13:00,72.7,51.0,30.33,ESE,122,1.0,9.0,47,0.00,,,0.00,weatherlink.com 1.10,2013-04-27 17:13:00,
2013-04-27 13:28:00,72.4,53.0,30.33,SE,145,1.0,10.0,50,0.00,,,0.00,weatherlink.com 1.10,2013-04-27 17:28:00,
2013-04-27 13:43:00,71.5,53.0,30.32,ESE,123,2.0,14.0,53,0.00,,,0.00,weatherlink.com 1.10,2013-04-27 17:43:00,
2013-04-27 13:58:00,71.3,54.0,30.32,ESE,115,2.0,10.0,55,0.00,,,0.00,weatherlink.com 1.10,2013-04-27 17:58:00,
2013-04-27 14:13:00,71.8,55.0,30.32,East,99,3.0,8.0,56,0.00,,,0.00,weatherlink.com 1.10,2013-04-27 18:13:00,
2013-04-27 14:28:00,73.0,54.0,30.32,SE,138,3.0,8.0,52,0.00,,,0.00,weatherlink.com 1.10,2013-04-27 18:28:00,
2013-04-27 14:43:00,71.3,50.0,30.32,NE,36,2.0,9.0,48,0.00,,,0.00,weatherlink.com 1.10,2013-04-27 18:43:00,
2013-04-27 14:58:00,71.1,49.0,30.32,ESE,117,0.0,9.0,45,0.00,,,0.00,weatherlink.com 1.10,2013-04-27 18:58:00,
2013-04-27 15:14:00,71.1,51.0,30.31,SE,132,6.0,12.0,50,0.00,,,0.00,weatherlink.com 1.10,2013-04-27 19:14:00,
2013-04-27 15:29:00,71.2,49.0,30.30,SE,126,7.0,11.0,45,0.00,,,0.00,weatherlink.com 1.10,2013-04-27 19:29:00,
2013-04-27 15:44:00,70.9,52.0,30.30,ESE,103,8.0,11.0,52,0.00,,,0.00,weatherlink.com 1.10,2013-04-27 19:44:00,
2013-04-27 15:59:00,70.5,54.0,30.30,ESE,109,7.0,14.0,57,0.00,,,0.00,weatherlink.com 1.10,2013-04-27 19:59:00,
2013-04-27 16:14:00,70.1,54.0,30.30,ENE,67,4.0,11.0,56,0.00,,,0.00,weatherlink.com 1.10,2013-04-27 20:14:00,
2013-04-27 16:29:00,69.3,52.0,30.30,East,92,7.0,11.0,55,0.00,,,0.00,weatherlink.com 1.10,2013-04-27 20:29:00,
2013-04-27 16:44:00,69.1,52.0,30.30,SE,124,3.0,12.0,55,0.00,,,0.00,weatherlink.com 1.10,2013-04-27 20:44:00,
2013-04-27 16:59:00,68.5,53.0,30.30,ESE,114,4.0,11.0,58,0.00,,,0.00,weatherlink.com 1.10,2013-04-27 20:59:00,
2013-04-27 17:14:00,67.2,52.0,30.30,East,80,6.0,11.0,58,0.00,,,0.00,weatherlink.com 1.10,2013-04-27 21:14:00,
2013-04-27 17:29:00,66.9,51.0,30.30,SSE,155,2.0,10.0,58,0.00,,,0.00,weatherlink.com 1.10,2013-04-27 21:29:00,
2013-04-27 17:44:00,66.4,52.0,30.30,SE,126,8.0,12.0,60,0.00,,,0.00,weatherlink.com 1.10,2013-04-27 21:44:00,
2013-04-27 17:59:00,65.7,53.0,30.30,ESE,107,7.0,11.0,64,0.00,,,0.00,weatherlink.com 1.10,2013-04-27 21:59:00,
2013-04-27 18:14:00,64.9,51.0,30.29,ESE,121,5.0,12.0,60,0.00,,,0.00,weatherlink.com 1.10,2013-04-27 22:14:00,
2013-04-27 18:29:00,64.7,51.0,30.29,ESE,119,4.0,12.0,62,0.00,,,0.00,weatherlink.com 1.10,2013-04-27 22:29:00,
2013-04-27 18:44:00,64.5,51.0,30.29,East,94,3.0,11.0,62,0.00,,,0.00,weatherlink.com 1.10,2013-04-27 22:44:00,
2013-04-27 18:59:00,64.2,51.0,30.29,ESE,121,7.0,9.0,63,0.00,,,0.00,weatherlink.com 1.10,2013-04-27 22:59:00,
2013-04-27 19:14:00,64.0,49.0,30.29,East,96,3.0,13.0,59,0.00,,,0.00,weatherlink.com 1.10,2013-04-27 23:14:00,
2013-04-27 19:29:00,63.7,49.0,30.29,East,96,3.0,13.0,59,0.00,,,0.00,weatherlink.com 1.10,2013-04-27 23:29:00,
2013-04-27 19:44:00,63.3,50.0,30.30,East,95,2.0,10.0,63,0.00,,,0.00,weatherlink.com 1.10,2013-04-27 23:44:00,
2013-04-27 19:59:00,63.0,50.0,30.30,SE,134,3.0,12.0,63,0.00,,,0.00,weatherlink.com 1.10,2013-04-27 23:59:00,
2013-04-27 20:14:00,62.9,50.0,30.30,SSE,148,4.0,10.0,63,0.00,,,0.00,weatherlink.com 1.10,2013-04-28 00:14:00,
2013-04-27 20:29:00,62.7,50.0,30.29,ESE,107,3.0,11.0,64,0.00,,,0.00,weatherlink.com 1.10,2013-04-28 00:29:00,
2013-04-27 20:44:00,62.5,51.0,30.29,South,178,1.0,11.0,67,0.00,,,0.00,weatherlink.com 1.10,2013-04-28 00:44:00,
2013-04-27 20:59:00,62.2,52.0,30.29,ENE,58,5.0,12.0,70,0.00,,,0.00,weatherlink.com 1.10,2013-04-28 00:59:00,
2013-04-27 21:14:00,61.9,53.0,30.29,East,92,6.0,11.0,72,0.00,,,0.00,weatherlink.com 1.10,2013-04-28 01:14:00,
2013-04-27 21:29:00,61.8,54.0,30.29,East,91,3.0,9.0,75,0.00,,,0.00,weatherlink.com 1.10,2013-04-28 01:29:00,
2013-04-27 21:44:00,61.6,54.0,30.29,ENE,66,5.0,13.0,75,0.00,,,0.00,weatherlink.com 1.10,2013-04-28 01:44:00,
2013-04-27 21:59:00,61.6,54.0,30.29,East,88,8.0,15.0,75,0.00,,,0.00,weatherlink.com 1.10,2013-04-28 01:59:00,
2013-04-27 22:14:00,61.5,53.0,30.29,East,83,6.0,12.0,74,0.00,,,0.00,weatherlink.com 1.10,2013-04-28 02:14:00,
2013-04-27 22:29:00,61.4,54.0,30.29,ENE,74,5.0,12.0,76,0.00,,,0.00,weatherlink.com 1.10,2013-04-28 02:29:00,
2013-04-27 22:44:00,61.1,53.0,30.30,ESE,109,0.0,10.0,75,0.00,,,0.00,weatherlink.com 1.10,2013-04-28 02:44:00,
2013-04-27 22:59:00,61.0,52.0,30.29,SE,139,2.0,12.0,73,0.00,,,0.00,weatherlink.com 1.10,2013-04-28 02:59:00,
2013-04-27 23:14:00,61.1,52.0,30.29,ESE,120,3.0,9.0,72,0.00,,,0.00,weatherlink.com 1.10,2013-04-28 03:14:00,
2013-04-27 23:29:00,61.1,52.0,30.28,ESE,112,2.0,11.0,71,0.00,,,0.00,weatherlink.com 1.10,2013-04-28 03:29:00,
2013-04-27 23:44:00,61.1,52.0,30.28,SE,134,4.0,12.0,73,0.00,,,0.00,weatherlink.com 1.10,2013-04-28 03:44:00,
2013-04-27 23:59:00,60.9,51.0,30.28,SE,137,1.0,9.0,71,0.00,,,0.00,weatherlink.com 1.10,2013-04-28 03:59:00,